• Join FlightAware (Why Join?)
  • Login
  • US Flag 
09:53AM EDT


 

Airport Tracker/Info


-or-


 

Live Flight TrackerFlight Track Log ✈ FDX1421 ✈ 16-Feb-2012 ✈ KMEM - KATL

Flight Track Log - Related Links

Times and Time Zones

All times are in EST time to prevent confusion due to time zone crossing. See the FDX1421 flight status page for this flight to view local times or setup timezone preferences in your user account.

Time Position Orientation Groundspeed Altitude Reporting Facility
EST Latitude Longitude Course Direction KTS MPH feet Rate Location/Type
04:18AM 35.0167 -89.9667 165° South 154 177 900  Level Anchorage Center
04:19AM 34.9667 -89.9500 141° Southeast 195 224 2,200 1,680 Climbing Anchorage Center
04:20AM 34.9167 -89.9000 90° East 256 295 4,300 2,340 Climbing Anchorage Center
04:21AM 34.9167 -89.8000 95° East 287 330 7,200 2,220 Climbing Anchorage Center
04:23AM 34.9028 -89.6153 97° East 363 418 10,500 1,680 Climbing Memphis Center
04:24AM 34.8894 -89.4761 106° East 376 433 11,800 1,740 Climbing Memphis Center
04:25AM 34.8550 -89.3347 105° East 421 484 14,000 1,860 Climbing Memphis Center
04:26AM 34.8244 -89.1983 106° East 446 513 15,600 1,860 Climbing Memphis Center
04:27AM 34.7875 -89.0372 106° East 473 544 17,800 2,100 Climbing Memphis Center
04:28AM 34.7503 -88.8783 106° East 478 550 19,800 1,920 Climbing Memphis Center
04:29AM 34.7128 -88.7175 105° East 489 563 21,700 1,620 Climbing Memphis Center
04:30AM 34.6750 -88.5489 107° East 506 582 23,100 1,320 Climbing Memphis Center
04:31AM 34.6347 -88.3858 106° East 506 582 24,400 1,200 Climbing Memphis Center
04:32AM 34.5944 -88.2100 107° East 519 597 25,600 1,200 Climbing Memphis Center
04:33AM 34.5447 -88.0072 105° East 553 636 26,800 660 Climbing Memphis Center
04:34AM 34.5036 -87.8267 106° East 561 646 27,000 60 Climbing Memphis Center
04:35AM 34.4603 -87.6467 106° East 561 646 27,000  Level Memphis Center
04:41AM 34.1976 -86.5920 107° East 545 627 27,000  Level FlightAware ADS-B
04:41AM 34.1754 -86.5019 107° East 545 627 27,000  Level FlightAware ADS-B
04:42AM 34.1397 -86.3578 107° East 542 624 27,000 -480 Level Atlanta Center
04:43AM 34.0950 -86.1836 107° East 542 624 26,100 -2,040 Descending Atlanta Center
04:44AM 34.0519 -86.0169 107° East 542 624 23,000 -2,940 Descending Atlanta Center
04:45AM 34.0067 -85.8356 107° East 525 604 20,300 -2,580 Descending Atlanta Center
04:46AM 33.9692 -85.6844 108° East 488 562 17,900 -2,400 Descending Atlanta Center
04:47AM 33.9292 -85.5383 108° East 459 528 15,600 -2,340 Descending Atlanta Center
04:48AM 33.8911 -85.4003 108° East 448 516 13,300 -1,920 Descending Atlanta Center
04:49AM 33.8589 -85.2819 109° East 433 498 11,800 -1,200 Descending Atlanta Center
04:50AM 33.8225 -85.1542 114° Southeast 416 479 11,000 -660 Descending Atlanta Center
04:51AM 33.7797 -85.0361 114° Southeast 394 453 10,500 -600 Descending Atlanta Center
04:52AM 33.7431 -84.9381 116° Southeast 351 404 9,900 -1,200 Descending Atlanta Center
04:53AM 33.7000 -84.8333 107° East 282 325 8,100 -1,860 Descending Atlanta TRACON
04:54AM 33.6833 -84.7667 103° East 272 313 6,400 -1,560 Descending Atlanta TRACON
04:56AM 33.6500 -84.6000 90° East 243 280 3,700 -1,380 Descending Atlanta TRACON
04:57AM 33.6500 -84.5333 90° East 203 234 2,500 -1,080 Descending Atlanta TRACON
04:58AM 33.6500 -84.4833 90° East 145 167 1,700 -840 Descending Atlanta TRACON